NWS Home NWS Lubbock West Texas Mesonet Latest Conditions as of 0242 AM, Mon Sep 23, 2019

Latest   N   C   S   Daily Sum   3hrΔ   24hrΔ   Soil Data 
Site Map   24hr Precip   72hr Precip   Google Plot


Station Time of Last Temp Dew Pt. RH Wind Direction Wind Speed Wind Gust Max Wind Max Temp Min Temp Max RH Min RH Altimeter 1HR Rain Today's Rain Solar Rad RFTI
Abernathy 5ENE  02:35 AM 65 60 89% E66 9 mph 101° @ 1235 AM 66 65 90 88 30.11" 0 0 0 0
Adrian 6WSW  02:35 AM 58 55 90% S1315 17 mph 152° @ 1205 AM 62 58 90 76 30.14" 0 0 0 0
Aiken 3WSW  02:35 AM 62 60 92% E56 7 mph 95° @ 1238 AM 64 61 94 90 30.11" 0 0 0 0
Amarillo 15NNW   02:35 AM 58 58 100% E44 10 mph 136° @ 0117 AM 63 58 100 77 30.12" 0 0 0 0
Amarillo 7SSE  02:35 AM 58 58 100% SE22 7 mph 109° @ 1218 AM 61 58 100 93 30.14" 0 0 0 0
Amarillo 9NNE  02:35 AM 59 56 89% S01 8 mph 179° @ 1225 AM 61 58 92 83 30.11" 0 0 0 0
Amherst 1NE  02:35 AM 62 58 94% SE24 6 mph 104° @ 1220 AM 63 61 94 88 30.12" 0 0 0 0
Andrews 2E  02:35 AM 72 65 82% S812 15 mph 166° @ 0200 AM 74 72 85 76 30.09" 0 0 0 0
Anton 6SSW  02:35 AM 62 59 92% NE01 5 mph 128° @ 1220 AM 65 62 92 86 30.10" 0 0 0 0
Aspermont 3NE  02:35 AM 75 70 89% S34 9 mph 155° @ 0150 AM 76 75 89 83 30.02" 0 0 0 0
Big Bend NP - Castolon  02:35 AM 80 70 71% SE34 10 mph 146° @ 1207 AM 82 79 75 64 30.00" 0 0 0 0
Big Bend NP - Persimmon Gap  02:35 AM 79 64 61% NE68 15 mph 359° @ 1220 AM 81 79 62 57 30.05" 0 0 0 0
Big Lake 1WNW  02:35 AM 73 66 80% SE45 8 mph 136° @ 1236 AM 73 70 93 80 30.07" 0 0 0 0
Bootleg 11WNW  02:35 AM 58 56 94% S910 11 mph 168° @ 0110 AM 59 57 95 88 30.17" 0 0 0 0
Boys Ranch 1WSW  02:35 AM 56 55 97% SE11 4 mph 59° @ 1229 AM 61 56 97 82 30.12" 0 0 0 0
Brownfield 2S  02:35 AM 67 64 94% SE55 8 mph 83° @ 1225 AM 69 67 94 81 30.10" 0 0 0 0
Canadian 6E  02:35 AM 58 56 90% NE67 10 mph 68° @ 0148 AM 63 58 90 74 30.07" 0 0 0 0
Caprock Canyons State Park  02:35 AM 63 61 93% W34 8 mph 299° @ 1249 AM 65 63 93 89 30.08" 0 0 0 0
Childress 2NNE  02:35 AM 68 63 88% N69 9 mph 8° @ 0235 AM 72 68 88 75 30.03" 0 0 0 0
Clarendon 2WSW  02:35 AM 62 57 88% NE22 8 mph 81° @ 0200 AM 64 61 92 83 30.09" 0 0 0 0
Claude 12SW  02:35 AM 62 58 89% E88 10 mph 87° @ 1222 AM 63 62 96 83 30.11" 0 0 0 0
Clyde 2WNW  02:35 AM 75 69 83% SE67 9 mph 104° @ 1202 AM 76 75 85 82 30.04" 0 0 0 0
Colorado City 5NW  02:35 AM 73 71 93% E55 5 mph 96° @ 0235 AM 74 73 94 90 30.06" 0 0 0 0
Coyanosa 2N  02:35 AM 72 71 94% SW01 23 mph 116° @ 1205 AM 73 71 96 88 30.05" 0.01 0.88 0 0
Crane 1NNW   02:35 AM 74 70 87% NE33 10 mph 58° @ 0103 AM 77 74 88 76 30.06" 0 0 0 0
Crowell 1E  02:35 AM 73 70 91% N66 8 mph 342° @ 0105 AM 76 73 91 81 30.00" 0 0 0 0
Dell City  02:35 AM 65 64 96% S23 9 mph 77° @ 0109 AM 69 65 97 81 30.12" 0 0 0 0
Denver City 7WNW  02:35 AM 64 61 93% SE56 8 mph 129° @ 1220 AM 66 64 93 84 30.11" 0 0 0 0
Dimmitt 2NE  02:35 AM 62 56 87% SE78 9 mph 104° @ 1210 AM 62 61 90 85 30.13" 0 0 0 0
Doole 3WNW  02:35 AM 75 63 66% SE68 8 mph 154° @ 0233 AM 79 74 67 57 30.02" 0 0 0 0
Dora NM 2SW  02:35 AM 60 54 82% S1011 16 mph 155° @ 1255 AM 65 60 82 68 30.14" 0 0 0 0
Dozier 3W  02:35 AM 66 63 92% N78 11 mph 27° @ 0132 AM 68 66 92 83 30.07" 0 0 0 0
Earth 9WSW  02:35 AM 58 56 93% S22 7 mph 121° @ 0108 AM 62 58 95 86 30.13" 0 0 0 0
Endee NM 2SW  02:35 AM 62 56 82% SE1114 14 mph 141° @ 0232 AM 62 60 85 78 30.13" 0 0 0 0
Estelline 3SSE  02:35 AM 67 65 94% NW33 5 mph 57° @ 0206 AM 70 67 94 83 30.03" 0 0 0 0
Floydada 2NNE  02:35 AM 62 58 91% NE56 9 mph 100° @ 0110 AM 65 62 91 87 30.09" 0 0 0 0
Fluvanna 3WNW  02:35 AM 71 67 91% SW56 9 mph 184° @ 1240 AM 73 70 92 85 30.06" 0 0 0 0
Fort Chadbourne  02:35 AM 72 72 100% W22 5 mph 89° @ 1206 AM 73 72 100 100 30.04" 0 0 0 0
Fort Lancaster  02:35 AM 80 65 60% E810 11 mph 115° @ 0100 AM 82 80 60 54 30.02" 0 0 0 0
Fort Lewis CO  02:35 AM 44 20 39% NE1113 13 mph 42° @ 0234 AM 47 44 40 34 30.33" 0 0 0 0
Fort McKavett  02:35 AM 76 64 66% SE914 15 mph 152° @ 0220 AM 79 75 67 59 30.05" 0 0 0 0
Friona 2NE  02:35 AM 59 56 93% SE22 9 mph 146° @ 1240 AM 61 59 93 89 30.15" 0 0 0 0
Fritch 1WNW  02:35 AM 61 57 85% SW34 12 mph 144° @ 1215 AM 67 61 86 71 30.12" 0 0 0 0
Gail 2ESE  02:35 AM 72 67 89% W22 4 mph 207° @ 0220 AM 74 71 91 83 30.06" 0 0 0 0
Goodlett 3W  02:35 AM 70 65 87% N78 10 mph 348° @ 1215 AM 73 70 87 79 30.00" 0 0 0 0
Goodnight  02:35 AM 60 60 99% N22 4 mph 41° @ 1257 AM 64 60 99 88 30.12" 0 0 0 0
Graham 5SSW  02:35 AM 72 66 86% W34 4 mph 151° @ 0115 AM 74 72 87 81 30.07" 0 0 0 0
Guadalupe Mtns Natl Park  02:35 AM 66 50 60% NW1012 15 mph 293° @ 0201 AM 68 65 65 59 30.23" 0 0 0 0
Guthrie 10WSW  02:35 AM 72 63 77% NE78 9 mph 3° @ 1250 AM 74 72 85 76 30.02" 0 0 0 0
Hackberry 2 SSE  02:35 AM 73 66 79% NE22 5 mph 22° @ 1202 AM 74 72 90 78 30.01" 0 0 0 0
Happy 1E  02:35 AM 61 57 86% SE22 8 mph 121° @ 1229 AM 62 60 89 85 30.13" 0 0 0 0
Hart 3N  02:35 AM 58 56 95% E44 8 mph 83° @ 1210 AM 60 58 95 91 30.12" 0 0 0 0
Haskell 1NW  02:35 AM 76 70 86% S34 7 mph 144° @ 0105 AM 78 76 88 81 30.01" 0 0 0 0
Hereford 2NW  02:35 AM 57 54 94% SE01 5 mph 123° @ 1225 AM 64 56 94 77 30.13" 0 0 0 0
Hobbs NM 5NW  02:35 AM 66 61 86% NE11 6 mph 114° @ 1204 AM 70 66 86 67 30.14" 0 0 0 0
Jayton 1SSE  02:35 AM 75 70 89% E67 8 mph 104° @ 0220 AM 77 75 89 79 30.03" 0 0 0 0
Junction 1SSW  02:35 AM 78 69 74% SE914 18 mph 149° @ 0139 AM 82 78 74 54 30.04" 0 0 0 0
Knox City 3NW  02:35 AM 78 72 87% SW24 8 mph 211° @ 1205 AM 81 78 88 80 30.01" 0 0 0 0
Lake Alan Henry 1NW  02:35 AM 72 69 90% SW33 6 mph 201° @ 1201 AM 76 72 90 78 30.04" 0 0 0 0
Lake McClellan 2NW  02:35 AM 63 56 80% NE55 9 mph 29° @ 1252 AM 68 63 80 69 30.12" 0 0 0 0
Lamesa 2SE  02:35 AM 72 67 91% S34 9 mph 140° @ 1230 AM 74 72 91 86 30.09" 0 0 0 0
Lesley 2S  02:35 AM 65 62 93% NW23 6 mph 283° @ 0133 AM 68 65 93 83 30.05" 0 0 0 0
Levelland 4S  02:35 AM 64 60 90% SE67 10 mph 136° @ 0100 AM 66 64 90 82 30.11" 0 0 0 0
Lomax 1SSE  02:35 AM 75 69 83% S22 17 mph 190° @ 1203 AM 75 74 83 80 30.06" 0 0 0 0
Lubbock 3WNW TTU  02:35 AM 65 62 96% SE23 7 mph 136° @ 0130 AM 67 65 98 90 30.09" 0 0 0 0
McCamey 1SSW  02:35 AM 74 69 84% N44 9 mph 60° @ 1231 AM 77 74 88 74 30.05" 0 0 0 0
McLean 1E  02:35 AM 64 58 84% NE89 10 mph 59° @ 0225 AM 69 64 84 70 30.08" 0 0 0 0
Memphis 1NE  02:35 AM 66 61 89% N34 6 mph 318° @ 0210 AM 68 66 92 87 30.04" 0 0 0 0
Menard 2NW   02:35 AM 77 67 69% S912 17 mph 164° @ 0220 AM 79 73 72 61 30.05" 0 0 0 0
Mertzon 3NNE  02:35 AM 68 66 94% W34 7 mph 344° @ 1230 AM 72 68 94 83 30.05" 0 0 0 0
Morton 1ENE  02:35 AM 62 57 89% SE13 7 mph 158° @ 0145 AM 64 62 89 83 30.12" 0 0 0 0
Muleshoe 2SSW  02:35 AM 59 56 93% NE01 7 mph 120° @ 1220 AM 61 59 95 93 30.12" 0 0 0 0
New Home  02:35 AM 67 65 93% S66 7 mph 166° @ 0123 AM 70 67 93 80 30.10" 0 0 0 0
Northfield 1S  12:30 AM 70 61 76% NW12 4 mph 12° @ 1210 AM 72 70 76 72 30.05" 0 0 0 0
O'Donnell 1N  02:35 AM 70 67 95% SE12 7 mph 130° @ 1205 AM 73 69 96 85 30.09" 0 0 0 0
Odell 4ENE  02:35 AM 73 72 97% E68 9 mph 94° @ 0215 AM 75 73 97 88 30.01" 0 0 0 0
Olton 6S  02:35 AM 61 59 95% E44 7 mph 101° @ 1205 AM 63 61 95 90 30.11" 0 0 0 0
Paducah 10SW  02:35 AM 69 63 88% NW56 7 mph 324° @ 0210 AM 72 68 88 80 30.02" 0 0 0 0
Palo Duro 4E (JA Ranch)  02:35 AM 60 59 95% NW77 8 mph 314° @ 1217 AM 63 60 96 92 30.08" 0 0 0 0
Palo Duro Canyon SP Floor  02:35 AM 58 58 99% W22 4 mph 344° @ 0204 AM 61 58 99 94 30.09" 0 0 0 0
Palo Duro Canyon State Park Rim  02:35 AM 60 56 89% N00 5 mph 138° @ 1247 AM 64 59 90 77 30.13" 0 0 0 0
Palo Duro Reservoir 1NW   02:35 AM 61 52 71% SE57 11 mph 112° @ 1214 AM 63 61 72 64 30.11" 0 0 0 0
Pampa 2E  02:35 AM 59 55 88% E78 9 mph 107° @ 1205 AM 62 58 88 79 30.11" 0 0 0 0
Panhandle 1SSW  02:35 AM 57 56 99% E12 9 mph 98° @ 1233 AM 60 56 99 91 30.14" 0 0 0 0
Plains 3N  02:35 AM 65 61 92% SE78 11 mph 93° @ 1245 AM 68 64 93 79 30.11" 0 0 0 0
Plainview 1S  02:35 AM 64 61 91% E22 6 mph 91° @ 1235 AM 66 63 92 87 30.10" 0 0 0 0
Post 1NE  02:35 AM 71 66 90% W23 8 mph 207° @ 1210 AM 74 71 90 76 30.05" 0 0 0 0
Ralls 1SE  02:35 AM 67 61 86% E46 7 mph 92° @ 0200 AM 69 66 88 85 30.09" 0 0 0 0
Reese Center  02:35 AM 65 59 84% S01 9 mph 142° @ 0150 AM 67 65 84 81 30.10" 0 0 0 0
Roaring Springs 3N  02:35 AM 69 62 82% NE55 8 mph 27° @ 1250 AM 72 69 83 75 30.06" 0 0 0 0
Romero 11 SSW  02:35 AM 59 54 84% E66 9 mph 95° @ 1202 AM 62 59 84 72 30.13" 0 0 0 0
Rotan 5W  02:35 AM 73 70 90% SE56 8 mph 261° @ 1221 AM 74 73 92 86 30.04" 0 0 0 0
San Angelo 7NW  02:35 AM 72 63 79% NW23 7 mph 153° @ 1205 AM 76 72 80 72 30.04" 0 0 0 0
Seagraves 1SW  02:35 AM 66 64 97% E34 5 mph 27° @ 0110 AM 68 66 97 90 30.10" 0 0 0 0
Segovia 7SSW  02:35 AM 75 68 80% SE1014 16 mph 139° @ 0214 AM 76 74 80 64 30.07" 0 0 0 0
Seminole 2NNE  02:35 AM 67 63 91% E24 9 mph 87° @ 0120 AM 70 67 91 75 30.10" 0 0 0 0
Seymour 3NW  02:35 AM 76 71 89% S57 10 mph 152° @ 1245 AM 78 76 89 83 29.99" 0 0 0 0
Sierra Blanca 1SSE  02:35 AM 67 65 94% W44 6 mph 239° @ 1224 AM 68 67 94 89 30.17" 0 0 0 0
Silverton 7ESE  02:35 AM 64 58 85% E78 9 mph 72° @ 1230 AM 64 62 90 84 30.10" 0 0 0 0
Slaton 2NE  02:35 AM 67 63 89% SE23 9 mph 123° @ 1240 AM 72 67 90 71 30.08" 0 0 0 0
Smyer  02:35 AM 67 61 81% SE56 9 mph 150° @ 0149 AM 68 67 82 73 30.10" 0 0 0 0
Snyder 3E  02:35 AM 73 68 89% SW33 5 mph 248° @ 0145 AM 73 72 94 89 30.04" 0 0 0 0
Snyder 3SSW  02:35 AM 72 71 96% SE34 5 mph 232° @ 0152 AM 73 72 96 90 30.05" 0 0 0 0
South Plains 3ENE  02:35 AM 63 60 88% E67 8 mph 80° @ 1248 AM 64 62 90 85 30.10" 0 0 0 0
Spur 1W  02:35 AM 69 65 92% NW45 7 mph 0° @ 0100 AM 71 69 94 91 30.03" 0 0 0 0
St. Lawrence 5SW  02:35 AM 71 69 97% SE56 8 mph 101° @ 0150 AM 71 71 97 93 30.06" 0 0 0 0
Sterling City 4WSW  02:35 AM 73 70 92% E45 6 mph 3° @ 1207 AM 74 72 95 79 30.06" 0 0 0 0
Stinnett 1NNW  02:35 AM 61 55 78% E56 8 mph 98° @ 1217 AM 64 61 80 73 30.13" 0 0 0 0
Stratford 4WNW  02:35 AM 54 50 87% S56 14 mph 143° @ 1217 AM 60 54 88 73 30.15" 0 0 0 0
Sundown 8WSW  12:35 AM 64 58 87% SE78 8 mph 116° @ 1205 AM 65 64 87 83 30.12" 0 0 0 0
Sweetwater 11SW   02:35 AM 72 68 86% SE78 8 mph 140° @ 0105 AM 73 72 90 81 30.07" 0 0 0 0
Tahoka 3NNE  02:35 AM 67 65 93% S56 8 mph 118° @ 1206 AM 70 67 93 79 30.09" 0 0 0 0
Tarzan 2WNW  02:35 AM 73 67 81% SW1214 18 mph 200° @ 0232 AM 75 73 83 79 30.08" 0 0 0 0
Tatum NM 2SW  02:35 AM 62 58 91% S56 8 mph 109° @ 1230 AM 64 62 91 87 30.13" 0 0 0 0
Throckmorton 1SW  02:35 AM 75 73 95% SE34 5 mph 142° @ 1209 AM 75 74 96 91 30.00" 0 0 0 0
Tulia 2ENE  02:35 AM 63 58 87% E45 11 mph 95° @ 1250 AM 65 62 88 81 30.11" 0 0 0 0
Turkey 2WSW  02:35 AM 70 60 73% NE00 5 mph 350° @ 1210 AM 71 69 75 70 30.06" 0 0 0 0
Umbarger 3NNE  02:35 AM 60 57 88% SE67 9 mph 135° @ 0217 AM 62 59 91 84 30.13" 0 0 0 0
Van Horn 3ENE  02:35 AM 67 65 93% S67 10 mph 226° @ 1250 AM 69 67 94 88 30.13" 0 0 0 0
Vigo Park  02:35 AM 62 58 86% E33 8 mph 95° @ 1246 AM 63 62 90 85 30.12" 0 0 0 0
Wall 2E  02:35 AM 72 66 82% N55 7 mph 19° @ 0224 AM 75 71 82 73 30.04" 0 0 0 0
Weinert 2NNE  02:35 AM 76 71 84% S34 8 mph 181° @ 1206 AM 78 76 84 79 30.00" 0 0 0 0
Welch  02:35 AM 68 67 96% SE55 8 mph 131° @ 1218 AM 70 68 96 87 30.10" 0 0 0 0
White River Lake 6NW  02:35 AM 68 62 86% N34 8 mph 355° @ 1220 AM 70 68 89 84 30.06" 0 0 0 0
Wolfforth 6SSW  02:35 AM 68 63 90% S68 10 mph 160° @ 0210 AM 68 65 91 88 30.09" 0 0 0 0

West Texas Mesonet Home   Site Map/Menu  NWS Lubbock Soil Data  Daily Summary Page  24hr Precip  72hr Precip  Google Plot